createdAt,value
2018-04-12T08:46:58.868Z,11.40
2018-04-12T08:49:27.164Z,11.60
2018-04-12T08:51:54.708Z,11.50
2018-04-12T08:54:23.010Z,11.90
2018-04-12T08:56:50.575Z,11.80
2018-04-12T08:59:18.119Z,12.10
2018-04-12T09:01:45.642Z,12.10
2018-04-12T09:04:13.191Z,12.30
2018-04-12T09:06:40.705Z,12.40
2018-04-12T09:09:08.277Z,12.60
2018-04-12T09:11:35.807Z,12.70
2018-04-12T09:14:04.126Z,12.80
2018-04-12T09:16:35.836Z,12.80
2018-04-12T09:19:04.137Z,12.80
2018-04-12T09:21:31.676Z,12.70
2018-04-12T09:23:59.998Z,12.90
2018-04-12T09:26:27.532Z,12.90
2018-04-12T09:28:55.068Z,13.00
2018-04-12T09:31:23.365Z,13.00
2018-04-12T09:33:50.921Z,12.90
2018-04-12T09:36:19.235Z,13.10
2018-04-12T09:38:46.764Z,13.10
2018-04-12T09:41:14.314Z,13.10
2018-04-12T09:43:42.607Z,13.00
2018-04-12T09:46:10.156Z,13.00
2018-04-12T09:48:38.457Z,13.10
2018-04-12T09:51:05.983Z,13.10
2018-04-12T09:53:34.295Z,13.00
2018-04-12T09:56:01.829Z,13.00
2018-04-12T09:58:30.130Z,12.80
2018-04-12T10:00:57.674Z,12.80
2018-04-12T10:03:25.224Z,12.80
2018-04-12T10:05:59.233Z,13.00
2018-04-12T10:08:29.046Z,13.00
2018-04-12T10:10:57.460Z,13.10
2018-04-12T10:13:29.167Z,13.10
2018-04-12T10:16:01.327Z,13.20
2018-04-12T10:18:28.834Z,13.10
2018-04-12T10:20:56.368Z,13.20
2018-04-12T10:23:24.643Z,13.30
2018-04-12T10:25:53.656Z,13.40
2018-04-12T10:28:21.993Z,13.40
2018-04-12T10:30:49.529Z,13.60
2018-04-12T10:33:17.068Z,13.50
2018-04-12T10:35:44.584Z,13.50
2018-04-12T10:38:13.485Z,13.70
2018-04-12T10:40:41.796Z,13.70
2018-04-12T10:43:09.348Z,13.60
2018-04-12T10:45:36.883Z,13.60
2018-04-12T10:48:05.433Z,13.80
2018-04-12T10:50:32.961Z,13.80
2018-04-12T10:53:00.501Z,13.90
2018-04-12T10:55:28.046Z,13.90
2018-04-12T10:57:56.339Z,14.00
2018-04-12T11:00:23.917Z,14.00
2018-04-12T11:02:51.581Z,14.00
2018-04-12T11:05:19.136Z,14.30
2018-04-12T11:07:46.748Z,14.50
2018-04-12T11:10:14.339Z,14.70
2018-04-12T11:12:41.891Z,14.90
2018-04-12T11:15:10.193Z,15.00
2018-04-12T11:17:37.743Z,15.00
2018-04-12T11:20:05.259Z,15.20
2018-04-12T11:22:32.877Z,15.30
2018-04-12T11:25:01.133Z,15.50
2018-04-12T11:27:28.720Z,15.80
2018-04-12T11:29:56.240Z,16.00
2018-04-12T11:32:23.811Z,16.30
2018-04-12T11:34:51.377Z,16.50
2018-04-12T11:37:19.732Z,16.40
2018-04-12T11:39:48.065Z,16.40
2018-04-12T11:42:15.783Z,16.30
2018-04-12T11:44:44.690Z,16.40
2018-04-12T11:47:12.917Z,16.40
2018-04-12T11:49:40.589Z,16.50
2018-04-12T11:52:08.085Z,16.60
2018-04-12T11:54:35.628Z,16.60
2018-04-12T11:57:03.913Z,16.90
2018-04-12T11:59:32.224Z,17.90
2018-04-12T12:01:59.794Z,17.90
2018-04-12T12:04:27.355Z,19.40
2018-04-12T12:06:54.967Z,20.90
2018-04-12T12:09:22.502Z,22.20
2018-04-12T12:11:50.057Z,22.70
2018-04-12T12:14:17.654Z,22.50
2018-04-12T12:16:45.159Z,21.80
2018-04-12T12:19:12.716Z,21.60
2018-04-12T12:21:40.300Z,22.30
2018-04-12T12:24:08.013Z,22.50
2018-04-12T12:26:36.091Z,22.50
2018-04-12T12:29:03.635Z,22.50
2018-04-12T12:31:31.324Z,22.20
2018-04-12T12:33:58.861Z,21.90
2018-04-12T12:36:26.437Z,21.00
2018-04-12T12:38:54.464Z,20.50
2018-04-12T12:41:22.085Z,20.10
2018-04-12T12:43:49.688Z,19.70
2018-04-12T12:46:28.968Z,19.80
2018-04-12T12:48:56.499Z,20.40
2018-04-12T12:51:30.779Z,21.60
2018-04-12T13:03:50.141Z,21.60
2018-04-12T13:06:30.427Z,21.50
2018-04-12T13:09:04.604Z,21.40
2018-04-12T13:11:32.239Z,21.40
2018-04-12T13:13:59.810Z,21.50
2018-04-12T13:16:32.957Z,21.80
2018-04-12T13:19:01.709Z,22.20
2018-04-12T13:21:34.811Z,22.30
2018-04-12T13:24:03.106Z,22.50
2018-04-12T13:26:30.638Z,22.50
2018-04-12T13:29:10.905Z,22.50
2018-04-12T13:31:40.111Z,22.40
2018-04-12T13:34:14.122Z,22.40
2018-04-12T13:36:43.118Z,23.30
2018-04-12T13:39:11.401Z,24.50
2018-04-12T13:41:38.936Z,24.40
2018-04-12T13:44:07.385Z,25.30
2018-04-12T13:46:34.928Z,25.20
2018-04-12T13:49:08.420Z,25.50
2018-04-12T13:51:35.956Z,25.90
2018-04-12T13:54:09.440Z,26.30
2018-04-12T13:59:10.542Z,27.30
2018-04-12T14:01:38.095Z,26.70
2018-04-12T14:04:11.508Z,25.10
2018-04-12T14:06:39.025Z,24.40
2018-04-12T14:09:07.342Z,23.50
2018-04-12T14:11:34.861Z,23.50
2018-04-12T14:14:08.774Z,22.90
2018-04-12T14:16:37.113Z,22.70
2018-04-12T14:19:04.699Z,22.70
2018-04-12T14:21:32.998Z,23.50
2018-04-12T14:24:06.154Z,23.50
2018-04-12T14:26:33.684Z,24.30
2018-04-12T14:29:06.943Z,24.50
2018-04-12T14:31:34.471Z,24.50
2018-04-12T14:34:08.405Z,24.70
2018-04-12T14:36:35.984Z,24.50
2018-04-12T14:39:03.521Z,24.20
2018-04-12T14:41:31.812Z,23.30
2018-04-12T14:44:05.127Z,23.20
2018-04-12T14:46:33.473Z,22.50
2018-04-12T14:49:01.753Z,21.90
2018-04-12T14:51:34.930Z,21.80
2018-04-12T14:54:08.984Z,21.70
2018-04-12T14:56:36.645Z,21.70
2018-04-12T14:59:04.194Z,21.50
2018-04-12T15:01:31.866Z,21.40
2018-04-12T15:03:59.395Z,21.30
2018-04-12T15:06:27.716Z,21.30
2018-04-12T15:08:55.252Z,21.30
2018-04-12T15:11:22.792Z,21.30
2018-04-12T15:13:51.097Z,20.90
2018-04-12T15:16:18.651Z,20.90
2018-04-12T15:18:46.222Z,20.80
2018-04-12T15:21:19.421Z,20.70
2018-04-12T15:23:46.953Z,20.60
2018-04-12T15:26:14.558Z,20.70
2018-04-12T15:28:42.153Z,20.70
2018-04-12T15:31:10.432Z,20.80
2018-04-12T15:33:38.742Z,20.70
2018-04-12T15:36:12.233Z,20.70
2018-04-12T15:38:39.774Z,20.50
2018-04-12T15:41:08.079Z,20.40
2018-04-12T15:43:41.599Z,20.40
2018-04-12T15:46:14.823Z,20.50
2018-04-12T15:48:42.370Z,20.50
2018-04-12T15:51:15.893Z,20.40
2018-04-12T15:53:49.829Z,20.30
2018-04-12T15:56:17.364Z,20.30
2018-04-12T15:58:45.668Z,20.40
2018-04-12T16:01:13.196Z,20.40
2018-04-12T16:03:41.520Z,20.20
2018-04-12T16:06:09.056Z,20.20
2018-04-12T16:08:36.615Z,20.10
2018-04-12T16:11:04.165Z,20.00
2018-04-12T16:13:32.459Z,20.00
2018-04-12T16:16:00.000Z,20.00
2018-04-12T16:18:28.312Z,20.00
2018-04-12T16:20:55.880Z,20.00
2018-04-12T16:23:23.416Z,20.10
2018-04-12T16:25:51.668Z,19.90
2018-04-12T16:28:19.981Z,19.70
2018-04-12T16:30:47.504Z,19.70
2018-04-12T16:33:15.873Z,19.90
2018-04-12T16:35:49.257Z,19.90
2018-04-12T16:38:16.791Z,19.90
2018-04-12T16:40:44.380Z,19.80
2018-04-12T16:43:11.978Z,19.90
2018-04-12T16:45:39.560Z,19.80
2018-04-12T16:48:07.130Z,19.80
2018-04-12T16:50:40.633Z,19.80
2018-04-12T16:53:08.173Z,19.80
2018-04-12T16:55:36.669Z,19.60
2018-04-12T16:58:10.066Z,19.60
2018-04-12T17:00:37.594Z,19.60
2018-04-12T17:03:11.583Z,19.50
2018-04-12T17:05:39.148Z,19.50
2018-04-12T17:08:07.595Z,19.50
2018-04-12T17:10:35.149Z,19.50
2018-04-12T17:13:03.120Z,19.50
2018-04-12T17:15:30.663Z,19.40
2018-04-12T17:18:04.111Z,19.40
2018-04-12T17:20:37.323Z,19.40
2018-04-12T17:23:05.672Z,19.40
2018-04-12T17:25:39.071Z,19.40
2018-04-12T17:28:06.673Z,19.30
2018-04-12T17:30:34.242Z,19.30
2018-04-12T17:33:13.901Z,19.30
2018-04-12T17:35:47.339Z,19.30
2018-04-12T17:38:16.908Z,19.20
2018-04-12T17:40:44.430Z,19.20
2018-04-12T17:53:08.765Z,18.40
2018-04-12T17:55:36.312Z,18.30
2018-04-12T17:58:04.144Z,18.40
2018-04-12T18:00:31.716Z,18.40
2018-04-12T18:03:05.206Z,18.60
2018-04-12T18:05:39.176Z,18.60
2018-04-12T18:08:07.499Z,18.60
2018-04-12T18:10:35.048Z,18.60
2018-04-12T18:13:14.511Z,18.60
2018-04-12T18:15:42.029Z,18.60
2018-04-12T18:18:15.204Z,18.60
2018-04-12T18:20:49.422Z,18.60
2018-04-12T18:23:17.848Z,18.50
2018-04-12T18:25:50.977Z,18.50
2018-04-12T18:28:18.520Z,18.50
2018-04-12T18:30:46.056Z,18.40
2018-04-12T18:33:14.363Z,18.40
2018-04-12T18:35:47.725Z,18.40
2018-04-12T18:38:15.930Z,18.40
2018-04-12T18:40:49.775Z,18.40
2018-04-12T18:43:23.136Z,18.30
2018-04-12T18:45:50.865Z,18.30
2018-04-12T18:48:18.419Z,18.30
2018-04-12T18:50:46.051Z,18.40
2018-04-12T18:53:14.349Z,18.40
2018-04-12T18:55:44.037Z,18.40
2018-04-12T18:58:18.107Z,18.40
2018-04-12T19:00:46.421Z,18.30
2018-04-12T19:03:20.576Z,18.30
2018-04-12T19:05:54.133Z,18.30
2018-04-12T19:08:28.162Z,18.20
2018-04-12T19:11:01.395Z,18.20
2018-04-12T19:13:28.977Z,18.20
2018-04-12T19:16:08.293Z,18.10
2018-04-12T19:18:35.851Z,18.00
2018-04-12T19:21:03.400Z,18.00
2018-04-12T19:23:30.967Z,17.90
2018-04-12T19:25:58.507Z,17.90
2018-04-12T19:28:31.910Z,17.80
2018-04-12T19:30:59.434Z,17.80
2018-04-12T19:33:27.743Z,17.80
2018-04-12T19:35:55.305Z,17.80
2018-04-12T19:38:28.669Z,17.80
2018-04-12T19:40:56.963Z,17.70
2018-04-12T19:43:31.644Z,17.70
2018-04-12T19:45:59.215Z,17.60
2018-04-12T19:48:26.772Z,17.50
2018-04-12T19:50:54.334Z,17.40
2018-04-12T19:53:21.905Z,17.40
2018-04-12T19:55:50.232Z,17.40
2018-04-12T19:58:17.782Z,17.30
2018-04-12T20:00:45.355Z,17.40
2018-04-12T20:03:13.789Z,17.30
2018-04-12T20:05:48.789Z,17.20
2018-04-12T20:08:16.387Z,17.20
2018-04-12T20:10:44.680Z,17.20
2018-04-12T20:13:12.209Z,17.20
2018-04-12T20:15:39.743Z,17.20
2018-04-12T20:18:13.175Z,17.10
2018-04-12T20:20:47.321Z,17.00
2018-04-12T20:23:14.883Z,17.00
2018-04-12T20:25:45.376Z,17.00
2018-04-12T20:28:13.669Z,16.90
2018-04-12T20:30:42.045Z,16.80
2018-04-12T20:33:16.357Z,16.80
2018-04-12T20:35:50.457Z,16.70
2018-04-12T20:38:24.599Z,16.70
2018-04-12T20:40:52.150Z,16.60
2018-04-12T20:43:27.165Z,16.70
2018-04-12T20:45:56.652Z,16.70
2018-04-12T20:48:24.188Z,16.70
2018-04-12T20:50:51.716Z,16.60
2018-04-12T20:53:20.064Z,16.70
2018-04-12T20:55:53.284Z,16.70
2018-04-12T20:58:21.606Z,16.60
2018-04-12T21:00:49.122Z,16.60
2018-04-12T21:03:17.450Z,16.60
2018-04-12T21:05:50.854Z,16.50
2018-04-12T21:08:24.314Z,16.60
2018-04-12T21:10:57.669Z,16.70
2018-04-12T21:13:31.195Z,16.70
2018-04-12T21:15:59.419Z,16.80
2018-04-12T21:18:26.951Z,16.80
2018-04-12T21:21:00.455Z,16.90
2018-04-12T21:23:27.995Z,16.90
2018-04-12T21:26:07.660Z,16.90
2018-04-12T21:28:48.014Z,17.00
2018-04-12T21:31:27.556Z,17.00
2018-04-12T21:33:55.079Z,16.90
2018-04-12T21:36:23.368Z,17.00
2018-04-12T21:38:57.408Z,16.90
2018-04-12T21:41:30.823Z,16.90
2018-04-12T21:43:58.356Z,16.90
2018-04-12T21:46:31.897Z,16.90
2018-04-12T21:49:00.320Z,16.90
2018-04-12T21:51:33.800Z,16.90
2018-04-12T21:54:08.074Z,16.80
2018-04-12T21:56:35.603Z,16.80
2018-04-12T21:59:03.149Z,16.90
2018-04-12T22:01:30.689Z,16.90
2018-04-12T22:03:58.214Z,16.90
2018-04-12T22:06:37.229Z,16.90
2018-04-12T22:09:05.446Z,17.00
2018-04-12T22:11:32.983Z,17.00
2018-04-12T22:14:02.147Z,17.00
2018-04-12T22:16:35.487Z,17.00
2018-04-12T22:19:03.018Z,17.00
2018-04-12T22:21:30.557Z,17.00
2018-04-12T22:23:58.081Z,16.90
2018-04-12T22:26:26.255Z,16.80
2018-04-12T22:28:59.652Z,16.80
2018-04-12T22:31:27.176Z,16.70
2018-04-12T22:33:54.721Z,16.60
2018-04-12T22:36:22.257Z,16.70
2018-04-12T22:38:49.797Z,16.60
2018-04-12T22:41:17.320Z,16.60
2018-04-12T22:43:56.780Z,16.70
2018-04-12T22:46:24.308Z,16.80
2018-04-12T22:48:51.831Z,16.70
2018-04-12T22:51:19.522Z,16.80
2018-04-12T22:53:47.035Z,16.70
2018-04-12T22:56:20.485Z,16.50
2018-04-12T22:58:54.172Z,16.60
2018-04-12T23:01:21.706Z,16.60
2018-04-12T23:03:50.167Z,16.50
2018-04-12T23:06:17.817Z,16.40
2018-04-12T23:08:45.371Z,16.40
2018-04-12T23:11:18.875Z,16.40
2018-04-12T23:13:46.524Z,16.30
2018-04-12T23:16:14.040Z,16.30
2018-04-12T23:18:42.352Z,16.10
2018-04-12T23:21:09.878Z,16.10
2018-04-12T23:23:44.043Z,16.10
2018-04-12T23:26:11.676Z,16.10
2018-04-12T23:28:39.222Z,16.00
2018-04-12T23:31:06.775Z,16.00
2018-04-12T23:33:35.055Z,15.90
2018-04-12T23:36:02.592Z,15.90
2018-04-12T23:38:30.884Z,16.00
2018-04-12T23:41:05.115Z,16.00
2018-04-12T23:43:32.643Z,16.00
2018-04-12T23:46:00.163Z,15.90
2018-04-12T23:48:27.690Z,15.90
2018-04-12T23:51:06.924Z,15.90
2018-04-12T23:53:34.445Z,15.90
2018-04-12T23:56:07.539Z,15.90
2018-04-12T23:58:35.088Z,15.80
